Time;durP1;ratioP1;P1;durP2;ratioP2;P2;SDS_P1;SDS_P2;PMS_P1;PMS_P2;Temp;Humidity;BMP_temperature;BMP_pressure;BME280_temperature;BME280_humidity;BME280_pressure;Samples;Min_cycle;Max_cycle;Signal;HPM_P1;HPM_P2
2023/07/17 00:01:30;;;;;;;6.33;3.67;;;;;;;15.61;98.19;101380.84;5284731;28;20131;-70
2023/07/17 00:04:02;;;;;;;7.33;3.77;;;;;;;15.66;98.48;101375.47;5284720;28;20025;-71
2023/07/17 00:06:33;;;;;;;6.57;4.37;;;;;;;15.58;98.55;101375.66;5284688;28;20031;-70
2023/07/17 00:09:06;;;;;;;9.47;3.90;;;;;;;15.57;98.45;101375.69;5284742;28;20036;-70
2023/07/17 00:11:38;;;;;;;6.53;3.85;;;;;;;15.54;99.09;101381.91;5284141;28;20031;-70
2023/07/17 00:14:09;;;;;;;9.23;4.17;;;;;;;15.50;99.26;101378.50;5284564;28;20459;-71
2023/07/17 00:16:40;;;;;;;10.00;4.17;;;;;;;15.47;99.73;101380.31;5284212;28;20036;-71
2023/07/17 00:19:12;;;;;;;11.83;4.33;;;;;;;15.51;100.00;101381.97;5284551;28;20549;-71
2023/07/17 00:21:43;;;;;;;9.03;5.33;;;;;;;15.46;100.00;101371.56;5284429;28;20082;-71
2023/07/17 00:24:14;;;;;;;6.43;3.93;;;;;;;15.41;100.00;101372.59;5283589;28;20024;-70
2023/07/17 00:26:46;;;;;;;6.10;3.77;;;;;;;15.47;100.00;101375.06;5284352;28;20032;-70
2023/07/17 00:29:25;;;;;;;8.60;4.77;;;;;;;15.47;100.00;101388.19;5284359;28;20035;-70
2023/07/17 00:31:57;;;;;;;9.25;4.40;;;;;;;15.47;100.00;101375.94;5284309;28;20045;-70
2023/07/17 00:34:28;;;;;;;9.30;5.13;;;;;;;15.35;100.00;101389.34;5284132;28;20037;-70
2023/07/17 00:37:00;;;;;;;7.80;4.53;;;;;;;15.35;100.00;101386.72;5283942;28;20578;-70
2023/07/17 00:39:31;;;;;;;8.43;4.07;;;;;;;15.30;100.00;101389.44;5282367;28;20438;-70
2023/07/17 00:42:03;;;;;;;6.97;3.97;;;;;;;15.21;100.00;101391.44;5283801;28;20468;-70
2023/07/17 00:44:38;;;;;;;6.90;4.23;;;;;;;15.20;100.00;101394.94;5283980;28;20367;-70
2023/07/17 00:47:10;;;;;;;9.32;4.15;;;;;;;15.22;100.00;101395.78;5283813;28;20050;-70
2023/07/17 00:49:42;;;;;;;6.18;4.28;;;;;;;15.09;100.00;101397.81;5283800;28;20033;-69
2023/07/17 00:52:13;;;;;;;8.30;4.40;;;;;;;15.05;100.00;101411.91;5283679;28;20032;-69
2023/07/17 00:54:46;;;;;;;7.13;3.80;;;;;;;15.10;100.00;101402.16;5283368;28;20025;-71
2023/07/17 00:57:19;;;;;;;7.38;4.13;;;;;;;15.01;100.00;101412.88;5283838;28;20048;-70
2023/07/17 00:59:51;;;;;;;9.30;4.60;;;;;;;15.05;100.00;101409.28;5283678;28;20086;-72
2023/07/17 01:02:23;;;;;;;8.37;4.30;;;;;;;14.95;100.00;101411.25;5283694;28;20037;-71
2023/07/17 01:04:55;;;;;;;11.38;5.20;;;;;;;14.94;100.00;101409.50;5283600;28;20804;-71
2023/07/17 01:07:27;;;;;;;7.10;4.13;;;;;;;14.95;100.00;101404.22;5283769;28;20024;-71
2023/07/17 01:09:58;;;;;;;7.60;4.57;;;;;;;14.97;100.00;101406.81;5283534;28;20113;-71
2023/07/17 01:12:32;;;;;;;11.50;4.97;;;;;;;14.91;100.00;101406.97;5283256;28;20479;-71
2023/07/17 01:15:04;;;;;;;7.65;4.53;;;;;;;14.87;100.00;101411.38;5283470;28;20479;-70
2023/07/17 01:17:35;;;;;;;7.85;4.00;;;;;;;14.89;100.00;101412.25;5283392;28;20036;-71
2023/07/17 01:20:09;;;;;;;8.70;4.40;;;;;;;14.82;100.00;101410.63;5283573;28;20037;-71
2023/07/17 01:22:59;;;;;;;7.28;3.78;;;;;;;14.76;100.00;101413.38;5283444;28;20479;-70
2023/07/17 01:25:31;;;;;;;9.00;4.30;;;;;;;14.74;100.00;101421.28;5283068;28;20028;-70
2023/07/17 01:28:03;;;;;;;7.82;4.53;;;;;;;14.73;100.00;101423.94;5283335;28;20044;-70
2023/07/17 01:30:34;;;;;;;9.97;4.83;;;;;;;14.66;100.00;101431.06;5283211;28;20144;-71
2023/07/17 01:33:06;;;;;;;8.20;3.90;;;;;;;14.69;100.00;101425.75;5283719;28;20078;-70
2023/07/17 01:35:37;;;;;;;10.23;4.53;;;;;;;14.63;100.00;101431.13;5283346;28;20108;-69
2023/07/17 01:38:08;;;;;;;8.67;4.93;;;;;;;14.64;100.00;101424.97;5283074;28;20068;-70
2023/07/17 01:40:40;;;;;;;8.00;4.17;;;;;;;14.64;100.00;101429.38;5282962;28;20373;-70
2023/07/17 01:43:11;;;;;;;9.67;4.37;;;;;;;14.61;100.00;101426.81;5282700;28;20391;-70
2023/07/17 01:45:43;;;;;;;9.93;4.70;;;;;;;14.58;100.00;101422.44;5283251;28;20518;-70
2023/07/17 01:48:17;;;;;;;10.23;4.15;;;;;;;14.53;100.00;101417.28;5281849;28;20082;-70
2023/07/17 01:50:48;;;;;;;7.57;3.78;;;;;;;14.57;100.00;101418.97;5283110;28;20059;-70
2023/07/17 01:53:21;;;;;;;7.03;4.50;;;;;;;14.57;100.00;101418.97;5285124;28;20033;-70
2023/07/17 01:55:52;;;;;;;;;;;;;;;14.58;100.00;101419.81;5287291;28;20032;-70
2023/07/17 01:58:24;;;;;;;8.30;3.80;;;;;;;14.58;100.00;101418.03;5287252;28;19935;-69
2023/07/17 02:00:55;;;;;;;12.43;4.67;;;;;;;14.47;100.00;101422.63;5287219;28;20086;-69
2023/07/17 02:03:27;;;;;;;9.95;4.38;;;;;;;14.36;100.00;101415.00;5287448;28;20529;-69
2023/07/17 02:05:58;;;;;;;8.87;4.33;;;;;;;14.35;100.00;101415.88;5287153;28;20029;-70
2023/07/17 02:08:30;;;;;;;7.57;4.47;;;;;;;14.36;100.00;101419.34;5285840;28;20068;-69
2023/07/17 02:11:01;;;;;;;9.63;4.20;;;;;;;14.29;100.00;101412.50;5286599;28;20490;-69
2023/07/17 02:13:33;;;;;;;9.07;4.17;;;;;;;14.22;100.00;101417.00;5286981;28;20376;-70
2023/07/17 02:16:05;;;;;;;8.73;4.47;;;;;;;14.18;100.00;101415.31;5286656;28;20039;-69
2023/07/17 02:18:36;;;;;;;8.60;3.67;;;;;;;14.20;100.00;101424.03;5286776;28;20081;-70
2023/07/17 02:21:07;;;;;;;8.43;3.90;;;;;;;14.17;100.00;101422.31;5286582;28;20028;-69
2023/07/17 02:23:39;;;;;;;10.67;4.00;;;;;;;14.13;100.00;101423.25;5286407;28;20468;-70
2023/07/17 02:26:11;;;;;;;10.40;4.80;;;;;;;14.14;100.00;101427.63;5285188;28;20390;-70
2023/07/17 02:28:42;;;;;;;6.72;3.90;;;;;;;14.09;100.00;101428.56;5286603;28;20353;-70
2023/07/17 02:31:13;;;;;;;11.00;5.13;;;;;;;14.07;100.00;101428.63;5286429;28;20056;-70
2023/07/17 02:33:45;;;;;;;8.27;4.40;;;;;;;14.00;100.00;101427.84;5286707;28;20037;-70
2023/07/17 02:36:16;;;;;;;10.97;4.10;;;;;;;14.01;100.00;101432.19;5286573;28;20494;-71
2023/07/17 02:38:47;;;;;;;9.30;4.43;;;;;;;13.95;100.00;101432.28;5285132;28;20121;-70
2023/07/17 02:41:19;;;;;;;8.13;4.30;;;;;;;13.89;100.00;101429.78;5286370;28;20365;-70
2023/07/17 02:43:51;;;;;;;10.03;5.20;;;;;;;13.91;100.00;101429.75;5286117;28;20029;-71
2023/07/17 02:46:22;;;;;;;10.20;5.38;;;;;;;13.85;100.00;101439.44;5285987;28;20033;-71
2023/07/17 02:48:57;;;;;;;10.47;4.60;;;;;;;13.90;100.00;101442.00;5286247;28;20388;-70
2023/07/17 02:51:28;;;;;;;10.32;4.53;;;;;;;13.83;100.00;101440.38;5286138;28;20032;-71
2023/07/17 02:53:59;;;;;;;8.13;4.07;;;;;;;13.78;100.00;101439.56;5285505;28;20341;-71
2023/07/17 02:56:31;;;;;;;11.90;5.23;;;;;;;13.72;100.00;101450.13;5285863;28;20028;-70
2023/07/17 02:59:03;;;;;;;10.93;4.10;;;;;;;13.70;100.00;101444.06;5284887;28;20418;-71
2023/07/17 03:01:34;;;;;;;8.55;4.07;;;;;;;13.65;100.00;101447.63;5286105;28;20039;-71
2023/07/17 03:04:06;;;;;;;11.10;4.80;;;;;;;13.63;100.00;101451.16;5285548;28;20029;-71
2023/07/17 03:06:37;;;;;;;7.53;3.77;;;;;;;13.62;100.00;101444.16;5286013;28;20539;-71
2023/07/17 03:09:08;;;;;;;10.47;4.07;;;;;;;13.62;100.00;101452.03;5285659;28;20600;-71
2023/07/17 03:11:42;;;;;;;10.60;3.97;;;;;;;13.59;100.00;101460.81;5285395;28;20029;-70
2023/07/17 03:14:14;;;;;;;7.63;4.53;;;;;;;13.59;100.00;101462.56;5285486;28;20047;-71
2023/07/17 03:16:45;;;;;;;10.53;4.10;;;;;;;13.55;100.00;101466.97;5285755;28;20423;-71
2023/07/17 03:19:16;;;;;;;8.50;4.00;;;;;;;13.52;100.00;101461.78;5285753;28;20033;-70
2023/07/17 03:21:48;;;;;;;7.53;3.60;;;;;;;13.49;100.00;101461.81;5285459;28;20028;-70
2023/07/17 03:24:19;;;;;;;14.27;5.23;;;;;;;13.44;100.00;101466.25;5285217;28;20036;-70
2023/07/17 03:26:50;;;;;;;11.50;5.07;;;;;;;13.40;100.00;101454.97;5285627;28;20028;-70
2023/07/17 03:29:22;;;;;;;12.07;4.67;;;;;;;13.41;100.00;101456.69;5285258;28;20491;-71
2023/07/17 03:31:53;;;;;;;9.77;4.33;;;;;;;13.37;100.00;101467.25;5285054;28;20052;-70
2023/07/17 03:34:24;;;;;;;9.00;4.07;;;;;;;13.31;100.00;101461.16;5284206;28;20024;-71
2023/07/17 03:36:56;;;;;;;8.93;4.17;;;;;;;13.27;100.00;101467.31;5285407;28;20111;-70
2023/07/17 03:39:27;;;;;;;12.17;4.67;;;;;;;13.27;100.00;101475.16;5285048;28;20032;-70
2023/07/17 03:41:58;;;;;;;11.33;4.20;;;;;;;13.22;100.00;101468.28;5285436;28;20128;-70
2023/07/17 03:44:30;;;;;;;9.67;5.53;;;;;;;13.21;100.00;101466.53;5284974;28;20090;-70
2023/07/17 03:47:01;;;;;;;8.03;3.87;;;;;;;13.24;100.00;101471.72;5283913;28;20464;-71
2023/07/17 03:49:33;;;;;;;9.37;4.70;;;;;;;13.22;100.00;101461.28;5284795;28;20449;-70
2023/07/17 03:52:05;;;;;;;10.50;4.67;;;;;;;13.23;100.00;101472.59;5283472;28;20136;-71
2023/07/17 03:54:36;;;;;;;11.27;5.10;;;;;;;13.18;100.00;101472.66;5284325;28;20539;-70
2023/07/17 03:57:07;;;;;;;8.47;3.97;;;;;;;13.18;100.00;101477.91;5284749;28;20116;-70
2023/07/17 03:59:50;;;;;;;12.30;5.80;;;;;;;13.20;100.00;101485.72;5284697;28;20037;-70
2023/07/17 04:02:22;;;;;;;12.25;4.25;;;;;;;13.20;100.00;101481.38;5284849;28;20472;-70
2023/07/17 04:04:53;;;;;;;12.55;4.35;;;;;;;13.19;100.00;101474.41;5284842;28;20103;-70
2023/07/17 04:07:24;;;;;;;10.13;5.23;;;;;;;13.17;100.00;101478.81;5283156;28;20115;-69
2023/07/17 04:09:56;;;;;;;11.57;4.40;;;;;;;13.18;100.00;101490.13;5284640;28;20411;-71
2023/07/17 04:12:27;;;;;;;13.53;4.63;;;;;;;13.15;100.00;101477.94;5284594;28;20032;-69
2023/07/17 04:14:59;;;;;;;9.70;4.47;;;;;;;13.14;100.00;101491.94;5283796;28;20036;-70
2023/07/17 04:17:31;;;;;;;11.73;4.53;;;;;;;13.11;100.00;101498.06;5284503;28;20033;-71
2023/07/17 04:20:02;;;;;;;9.53;4.33;;;;;;;13.13;100.00;101503.28;5284409;28;20028;-70
2023/07/17 04:22:33;;;;;;;13.30;4.57;;;;;;;13.13;100.00;101500.66;5284131;28;20419;-72
2023/07/17 04:25:06;;;;;;;12.53;4.77;;;;;;;13.10;100.00;101495.44;5283927;28;20048;-72
2023/07/17 04:27:37;;;;;;;9.55;4.85;;;;;;;13.10;100.00;101496.31;5284363;28;20040;-72
2023/07/17 04:30:09;;;;;;;13.03;5.57;;;;;;;13.09;100.00;101496.34;5283569;28;20021;-71
2023/07/17 04:32:40;;;;;;;9.23;5.30;;;;;;;13.11;100.00;101502.44;5284149;28;20036;-71
2023/07/17 04:35:11;;;;;;;11.03;5.50;;;;;;;13.14;100.00;101502.41;5284112;28;20471;-72
2023/07/17 04:37:43;;;;;;;10.40;5.20;;;;;;;13.19;100.00;101510.19;5283994;28;20058;-71
2023/07/17 04:40:15;;;;;;;9.03;4.77;;;;;;;13.19;100.00;101515.44;5284065;28;20058;-71
2023/07/17 04:42:46;;;;;;;11.77;5.60;;;;;;;13.19;100.00;101521.53;5282691;28;20044;-71
2023/07/17 04:45:19;;;;;;;12.07;5.00;;;;;;;13.21;100.00;101524.13;5283574;28;20024;-71
2023/07/17 04:47:51;;;;;;;10.95;5.70;;;;;;;13.22;100.00;101523.25;5283862;28;20029;-72
2023/07/17 04:50:27;;;;;;;13.63;5.37;;;;;;;13.22;100.00;101523.25;5283444;28;20384;-72
2023/07/17 04:52:58;;;;;;;12.50;5.53;;;;;;;13.26;100.00;101528.41;5283820;28;20036;-71
2023/07/17 04:55:29;;;;;;;13.00;5.47;;;;;;;13.26;100.00;101522.31;5283367;28;20056;-71
2023/07/17 04:58:01;;;;;;;11.20;5.53;;;;;;;13.27;100.00;101530.16;5283777;28;20031;-71
2023/07/17 05:00:33;;;;;;;13.17;5.60;;;;;;;13.30;100.00;101524.88;5283648;28;20037;-71
2023/07/17 05:03:04;;;;;;;10.60;5.10;;;;;;;13.35;100.00;101530.09;5283638;28;20079;-71
2023/07/17 05:05:36;;;;;;;11.48;5.47;;;;;;;13.41;100.00;101535.28;5283622;28;20025;-71
2023/07/17 05:08:07;;;;;;;9.43;5.50;;;;;;;13.49;100.00;101538.66;5283606;28;20465;-72
2023/07/17 05:10:39;;;;;;;10.07;5.10;;;;;;;13.56;100.00;101536.81;5283352;28;20068;-72
2023/07/17 05:13:10;;;;;;;9.80;5.30;;;;;;;13.60;100.00;101540.25;5283529;28;20372;-71
2023/07/17 05:15:42;;;;;;;11.33;5.50;;;;;;;13.67;100.00;101537.53;5283538;28;20036;-72
2023/07/17 05:18:13;;;;;;;14.40;5.50;;;;;;;13.73;100.00;101544.44;5283519;28;20064;-71
2023/07/17 05:20:49;;;;;;;14.27;6.67;;;;;;;13.80;100.00;101540.84;5283765;28;20515;-71
2023/07/17 05:23:21;;;;;;;10.63;5.50;;;;;;;13.84;100.00;101546.91;5282245;28;20032;-71
2023/07/17 05:25:57;;;;;;;11.40;6.67;;;;;;;13.92;100.00;101545.03;5282848;28;20060;-71
2023/07/17 05:28:28;;;;;;;13.85;6.30;;;;;;;13.98;100.00;101544.09;5283360;28;20036;-70
2023/07/17 05:30:59;;;;;;;11.17;5.50;;;;;;;14.03;100.00;101548.38;5283002;28;20093;-71
2023/07/17 05:33:31;;;;;;;10.73;5.67;;;;;;;14.10;100.00;101557.00;5282045;28;20033;-70
2023/07/17 05:36:02;;;;;;;12.13;5.13;;;;;;;14.17;100.00;101552.56;5283318;28;20032;-71
2023/07/17 05:38:34;;;;;;;13.03;6.43;;;;;;;14.22;100.00;101559.44;5283310;28;20029;-71
2023/07/17 05:41:05;;;;;;;13.10;5.70;;;;;;;14.29;100.00;101568.09;5283349;28;20028;-72
2023/07/17 05:43:36;;;;;;;9.50;5.00;;;;;;;14.35;100.00;101567.13;5283238;28;20028;-71
2023/07/17 05:46:08;;;;;;;10.47;6.10;;;;;;;14.44;99.68;101569.63;5283405;28;20029;-71
2023/07/17 05:48:39;;;;;;;14.60;5.77;;;;;;;14.51;99.45;101570.38;5283174;28;20554;-71
2023/07/17 05:51:11;;;;;;;13.03;5.43;;;;;;;14.57;98.64;101568.50;5282022;28;20060;-71
2023/07/17 05:53:42;;;;;;;11.57;5.77;;;;;;;14.65;98.10;101563.19;5282836;28;20048;-71
2023/07/17 05:56:15;;;;;;;9.03;5.50;;;;;;;14.72;96.90;101575.28;5282648;28;20021;-71
2023/07/17 05:58:47;;;;;;;12.35;6.60;;;;;;;14.76;96.23;101576.09;5282988;28;20041;-71
2023/07/17 06:01:18;;;;;;;15.50;7.00;;;;;;;14.82;96.19;101581.22;5282780;28;20085;-71
2023/07/17 06:03:49;;;;;;;12.20;6.37;;;;;;;14.90;95.83;101573.22;5282903;28;20064;-71
2023/07/17 06:06:21;;;;;;;13.43;5.97;;;;;;;14.96;95.08;101578.38;5281780;28;20032;-72
2023/07/17 06:08:52;;;;;;;10.27;6.17;;;;;;;15.02;94.99;101582.63;5282942;28;20025;-71
2023/07/17 06:11:23;;;;;;;11.87;5.90;;;;;;;15.04;93.74;101592.22;5282602;28;20037;-72
2023/07/17 06:13:55;;;;;;;16.13;6.63;;;;;;;15.15;93.86;101594.66;5282672;28;20036;-71
2023/07/17 06:16:26;;;;;;;16.43;6.53;;;;;;;15.20;93.48;101597.16;5282900;28;20028;-71
2023/07/17 06:18:57;;;;;;;14.77;6.53;;;;;;;15.23;92.09;101602.38;5283126;28;20094;-72
2023/07/17 06:21:29;;;;;;;16.67;6.63;;;;;;;15.20;91.54;101598.06;5282606;28;20044;-72
2023/07/17 06:24:00;;;;;;;13.53;7.67;;;;;;;15.26;91.92;101612.81;5282700;28;20060;-71
2023/07/17 06:26:32;;;;;;;11.73;6.47;;;;;;;15.30;91.99;101604.00;5283139;28;20040;-71
2023/07/17 06:29:05;;;;;;;10.97;5.27;;;;;;;15.41;91.59;101603.78;5282812;28;20024;-69
2023/07/17 06:31:37;;;;;;;13.35;5.72;;;;;;;15.49;91.84;101604.50;5282634;28;20052;-71
2023/07/17 06:34:08;;;;;;;13.05;5.88;;;;;;;15.56;91.18;101616.59;5282429;28;20033;-70
2023/07/17 06:36:40;;;;;;;12.90;6.47;;;;;;;15.61;90.55;101617.38;5281462;28;20143;-71
2023/07/17 06:39:13;;;;;;;16.27;6.22;;;;;;;15.69;89.92;101612.81;5285250;28;20041;-71
2023/07/17 06:41:44;;;;;;;13.38;5.78;;;;;;;15.73;89.14;101628.53;5286122;28;20041;-70
2023/07/17 06:44:16;;;;;;;15.13;6.27;;;;;;;15.75;89.02;101616.25;5286413;28;20380;-71
2023/07/17 06:46:47;;;;;;;9.83;5.50;;;;;;;15.79;88.54;101631.94;5285134;28;20029;-71
2023/07/17 06:49:18;;;;;;;13.57;6.83;;;;;;;15.81;87.80;101634.50;5286273;28;20119;-69
2023/07/17 06:51:50;;;;;;;11.90;6.03;;;;;;;15.83;87.59;101627.50;5286181;28;20028;-71
2023/07/17 06:54:21;;;;;;;11.97;6.17;;;;;;;16.00;87.92;101633.25;5285992;28;20029;-72
2023/07/17 06:56:52;;;;;;;15.27;6.77;;;;;;;16.07;87.01;101633.09;5286163;28;20167;-70
2023/07/17 06:59:26;;;;;;;12.73;5.93;;;;;;;16.20;85.14;101631.94;5286087;28;20025;-71
2023/07/17 07:01:57;;;;;;;13.50;6.40;;;;;;;16.26;85.50;101638.81;5286019;28;20477;-72
2023/07/17 07:04:28;;;;;;;11.37;5.90;;;;;;;16.43;83.87;101635.81;5286088;28;20162;-70
2023/07/17 07:07:00;;;;;;;13.97;6.20;;;;;;;16.28;84.19;101645.78;5286278;28;20126;-71
2023/07/17 07:09:31;;;;;;;12.90;5.57;;;;;;;16.19;84.53;101641.56;5285924;28;20089;-71
2023/07/17 07:12:03;;;;;;;13.33;6.03;;;;;;;16.39;84.57;101648.16;5284173;28;20032;-71
2023/07/17 07:14:35;;;;;;;10.43;5.70;;;;;;;16.66;83.36;101651.88;5285788;28;20044;-72
2023/07/17 07:17:06;;;;;;;10.67;5.37;;;;;;;16.75;82.40;101658.72;5285809;28;20830;-72
2023/07/17 07:19:37;;;;;;;14.20;6.60;;;;;;;16.84;82.43;101665.50;5285711;28;20040;-72
2023/07/17 07:22:09;;;;;;;13.87;6.03;;;;;;;16.94;81.03;101659.16;5285483;28;20036;-73
2023/07/17 07:24:42;;;;;;;13.17;6.53;;;;;;;17.46;79.54;101659.53;5285249;28;20028;-72
2023/07/17 07:27:13;;;;;;;12.32;6.30;;;;;;;17.21;78.29;101661.97;5285271;28;20036;-71
2023/07/17 07:29:45;;;;;;;12.33;4.87;;;;;;;17.22;78.40;101667.19;5285577;28;20043;-70
2023/07/17 07:32:16;;;;;;;15.03;5.67;;;;;;;17.52;77.62;101666.38;5285423;28;20506;-71
2023/07/17 07:34:47;;;;;;;9.60;5.60;;;;;;;17.61;76.09;101672.31;5285481;28;20048;-71
2023/07/17 07:37:19;;;;;;;12.67;5.50;;;;;;;17.61;74.94;101669.66;5267430;28;20121;-72
2023/07/17 07:39:50;;;;;;;13.67;4.53;;;;;;;17.48;75.06;101665.63;5285304;28;20039;-73
2023/07/17 07:42:21;;;;;;;11.33;4.90;;;;;;;17.60;75.06;101677.63;5284105;28;20025;-69
2023/07/17 07:44:53;;;;;;;9.23;4.73;;;;;;;17.44;74.75;101670.13;5285279;28;20070;-70
2023/07/17 07:47:24;;;;;;;9.77;4.77;;;;;;;17.40;74.29;101676.38;5283807;28;20036;-70
2023/07/17 07:49:56;;;;;;;8.33;4.33;;;;;;;17.62;74.36;101683.69;5285030;28;20040;-70
2023/07/17 07:52:27;;;;;;;11.10;5.23;;;;;;;17.54;73.94;101688.31;5284981;28;20079;-69
2023/07/17 07:54:58;;;;;;;11.93;4.93;;;;;;;17.59;74.12;101683.78;5284761;28;20036;-70
2023/07/17 07:57:30;;;;;;;10.43;4.57;;;;;;;17.84;73.51;101690.09;5284563;28;20046;-69
2023/07/17 08:00:02;;;;;;;9.93;5.63;;;;;;;18.14;72.74;101684.00;5283643;28;20383;-71
2023/07/17 08:02:33;;;;;;;10.18;4.85;;;;;;;18.18;71.90;101699.69;5284794;28;20529;-70
2023/07/17 08:05:05;;;;;;;10.30;5.90;;;;;;;17.91;71.40;101682.03;5284523;28;20109;-70
2023/07/17 08:07:37;;;;;;;10.73;4.97;;;;;;;18.13;72.01;101700.72;5284963;28;20055;-71
2023/07/17 08:10:08;;;;;;;;;;;;;;;18.15;68.69;101702.41;5285065;28;20031;-70
2023/07/17 08:12:40;;;;;;;10.23;4.80;;;;;;;17.97;70.48;101697.69;5284345;28;19917;-71
2023/07/17 08:15:11;;;;;;;14.23;5.00;;;;;;;18.17;69.81;101699.72;5284576;28;20047;-71
2023/07/17 08:17:43;;;;;;;13.27;4.90;;;;;;;18.36;68.62;101708.81;5284490;28;20033;-71
2023/07/17 08:20:14;;;;;;;11.37;5.53;;;;;;;18.42;67.51;101710.41;5284437;28;20471;-70
2023/07/17 08:22:46;;;;;;;16.20;5.70;;;;;;;18.63;66.23;101705.34;5284297;28;20036;-70
2023/07/17 08:25:18;;;;;;;10.02;5.88;;;;;;;18.57;66.74;101706.41;5283573;28;20040;-70
2023/07/17 08:27:49;;;;;;;11.40;4.97;;;;;;;18.63;67.54;101705.34;5283813;28;20044;-71
2023/07/17 08:30:21;;;;;;;9.70;5.17;;;;;;;18.53;66.31;101703.03;5283827;28;20115;-70
2023/07/17 08:32:53;;;;;;;10.10;4.57;;;;;;;18.76;63.96;101698.78;5284402;28;20274;-70
2023/07/17 08:35:24;;;;;;;11.68;4.38;;;;;;;19.10;64.56;101697.69;5283800;28;20052;-70
2023/07/17 08:37:56;;;;;;;8.43;4.60;;;;;;;19.49;62.64;101700.72;5283848;28;20021;-71
2023/07/17 08:40:27;;;;;;;8.47;5.30;;;;;;;19.11;61.69;101702.03;5284163;28;20059;-71
2023/07/17 08:43:00;;;;;;;10.17;4.70;;;;;;;19.06;63.02;101710.16;5284130;28;20032;-71
2023/07/17 08:45:32;;;;;;;9.90;4.30;;;;;;;19.28;62.91;101710.25;5282674;28;20028;-71
2023/07/17 08:48:05;;;;;;;10.23;5.40;;;;;;;19.19;61.92;101705.31;5283950;28;20056;-72
2023/07/17 08:50:37;;;;;;;7.70;4.65;;;;;;;19.08;60.35;101712.75;5282538;28;20107;-71
2023/07/17 08:53:10;;;;;;;10.07;4.35;;;;;;;19.13;61.00;101710.81;5283894;28;20571;-72
2023/07/17 08:55:42;;;;;;;14.55;5.18;;;;;;;19.27;61.45;101712.94;5283293;28;20036;-70
2023/07/17 08:58:14;;;;;;;9.43;4.43;;;;;;;18.98;61.14;101712.16;5283690;28;20090;-71
2023/07/17 09:00:47;;;;;;;11.57;5.67;;;;;;;19.04;60.92;101705.81;5283089;28;20048;-71
2023/07/17 09:03:18;;;;;;;9.65;4.82;;;;;;;19.41;60.01;101715.97;5283365;28;20059;-71
2023/07/17 09:05:50;;;;;;;7.83;4.17;;;;;;;19.85;58.91;101710.94;5283631;28;20068;-72
2023/07/17 09:08:21;;;;;;;11.23;4.53;;;;;;;20.38;57.88;101719.50;5283650;28;20056;-71
2023/07/17 09:11:09;;;;;;;7.67;4.10;;;;;;;20.60;56.39;101708.94;5283238;28;20380;-72
2023/07/17 09:13:44;;;;;;;10.27;4.60;;;;;;;20.17;55.23;101713.25;5283192;28;20043;-69
2023/07/17 09:16:18;;;;;;;9.05;4.00;;;;;;;20.05;54.72;101709.31;5283252;28;20054;-69
2023/07/17 09:18:51;;;;;;;8.55;3.72;;;;;;;19.68;56.33;101711.50;5283189;28;20029;-70
2023/07/17 09:21:24;;;;;;;8.75;4.63;;;;;;;19.89;55.81;101716.97;5282183;28;20032;-71
2023/07/17 09:23:57;;;;;;;9.73;4.10;;;;;;;19.99;56.75;101713.03;5283500;28;20033;-72
2023/07/17 09:26:29;;;;;;;10.77;3.85;;;;;;;20.32;55.70;101710.03;5283040;28;20025;-72
2023/07/17 09:29:01;;;;;;;7.07;3.60;;;;;;;20.56;53.48;101720.59;5283449;28;20118;-71
2023/07/17 09:31:32;;;;;;;8.73;4.30;;;;;;;20.28;52.20;101719.00;5281735;28;20062;-70
2023/07/17 09:34:12;;;;;;;5.07;3.57;;;;;;;20.32;53.46;101712.69;5283380;28;20032;-71
2023/07/17 09:36:43;;;;;;;8.68;4.05;;;;;;;20.27;54.28;101717.31;5283471;28;20036;-71
2023/07/17 09:39:15;;;;;;;7.17;4.10;;;;;;;20.61;51.96;101715.97;5283172;28;20033;-71
2023/07/17 09:41:46;;;;;;;7.43;3.93;;;;;;;20.78;50.99;101717.97;5283278;28;20451;-72
2023/07/17 09:44:18;;;;;;;12.33;4.73;;;;;;;20.41;51.52;101735.28;5283279;28;20443;-70
2023/07/17 09:46:50;;;;;;;7.70;3.60;;;;;;;20.02;52.61;101720.00;5283198;28;20032;-70
2023/07/17 09:49:21;;;;;;;9.53;4.00;;;;;;;20.02;52.42;101731.44;5283172;28;20032;-70
2023/07/17 09:51:55;;;;;;;8.02;3.65;;;;;;;20.26;52.71;101733.25;5282942;28;20025;-71
2023/07/17 09:54:27;;;;;;;8.80;3.65;;;;;;;20.70;50.78;101717.41;5281535;28;20025;-71
2023/07/17 09:56:59;;;;;;;8.20;3.53;;;;;;;21.37;48.07;101715.53;5283077;28;20089;-70
2023/07/17 09:59:33;;;;;;;4.68;3.28;;;;;;;21.64;47.24;101730.25;5283100;28;20033;-70
2023/07/17 10:02:10;;;;;;;8.48;3.60;;;;;;;21.40;47.63;101723.34;5283018;28;20028;-70
2023/07/17 10:04:47;;;;;;;7.05;3.55;;;;;;;21.02;47.57;101729.34;5283004;28;20032;-70
2023/07/17 10:07:20;;;;;;;6.32;3.42;;;;;;;21.76;46.69;101712.91;5282968;28;20029;-70
2023/07/17 10:09:52;;;;;;;7.78;3.33;;;;;;;22.85;43.04;101714.03;5282937;28;20047;-71
2023/07/17 10:12:24;;;;;;;8.25;3.53;;;;;;;23.83;40.27;101717.00;5282909;28;20032;-71
2023/07/17 10:14:57;;;;;;;7.38;4.47;;;;;;;23.38;41.16;101717.59;5286999;28;20055;-71
2023/07/17 10:17:34;;;;;;;8.57;3.90;;;;;;;23.72;40.80;101715.81;5286509;28;20124;-71
2023/07/17 10:20:08;;;;;;;6.45;3.67;;;;;;;23.93;38.97;101725.34;5286798;28;20119;-69
2023/07/17 10:22:44;;;;;;;9.68;4.13;;;;;;;22.86;41.88;101715.75;5286539;28;20381;-71
2023/07/17 10:25:18;;;;;;;7.40;3.58;;;;;;;21.83;44.35;101714.38;5286290;28;20031;-69
2023/07/17 10:28:01;;;;;;;9.15;4.50;;;;;;;22.72;43.07;101719.09;5287085;28;20216;-70
2023/07/17 10:30:34;;;;;;;8.18;3.95;;;;;;;23.80;40.19;101718.94;5286157;28;20466;-71
2023/07/17 10:33:16;;;;;;;8.52;4.20;;;;;;;23.41;41.09;101714.75;5286682;28;20029;-71
2023/07/17 10:36:00;;;;;;;7.60;3.78;;;;;;;22.00;42.97;101718.03;5285407;28;20032;-71
2023/07/17 10:38:39;;;;;;;8.10;3.85;;;;;;;21.67;44.14;101723.97;5286554;28;20029;-71
2023/07/17 10:41:13;;;;;;;7.75;3.65;;;;;;;22.65;43.74;101709.69;5286447;28;20436;-72
2023/07/17 10:43:53;;;;;;;6.38;3.58;;;;;;;23.98;39.89;101717.94;5286354;28;20100;-71
2023/07/17 10:46:28;;;;;;;8.35;4.40;;;;;;;25.18;37.66;101714.75;5286384;28;20062;-71
2023/07/17 10:49:10;;;;;;;6.70;4.03;;;;;;;26.24;36.13;101713.56;5286239;28;20033;-70
2023/07/17 10:51:43;;;;;;;12.63;5.07;;;;;;;26.71;35.24;101711.44;5286285;28;20039;-71
2023/07/17 10:54:16;;;;;;;7.82;4.18;;;;;;;27.49;34.13;101715.16;5285727;28;20666;-72
2023/07/17 10:56:49;;;;;;;6.60;4.22;;;;;;;27.82;33.11;101703.88;5286461;28;20029;-71
2023/07/17 10:59:22;;;;;;;10.25;4.25;;;;;;;26.54;33.46;101707.22;5286057;28;20478;-71
2023/07/17 11:02:00;;;;;;;7.78;3.75;;;;;;;26.39;34.14;101707.25;5285954;28;20029;-71
2023/07/17 11:04:33;;;;;;;9.73;3.88;;;;;;;25.99;34.21;101709.81;5286085;28;20418;-70
2023/07/17 11:07:07;;;;;;;6.70;3.33;;;;;;;25.08;35.41;101704.66;5285920;28;20038;-71
2023/07/17 11:09:43;;;;;;;9.02;3.95;;;;;;;25.53;35.59;101701.97;5285855;28;20033;-71
2023/07/17 11:12:16;;;;;;;7.72;3.95;;;;;;;26.75;34.41;101711.16;5285506;28;20028;-70
2023/07/17 11:14:51;;;;;;;7.18;4.00;;;;;;;27.17;33.68;101705.69;5285770;28;20059;-72
2023/07/17 11:17:24;;;;;;;5.60;3.85;;;;;;;25.28;35.25;101707.97;5285669;28;20025;-71
2023/07/17 11:20:05;;;;;;;8.93;4.35;;;;;;;23.80;38.44;101709.13;5285732;28;20021;-71
2023/07/17 11:22:37;;;;;;;8.80;3.40;;;;;;;23.43;39.31;101695.13;5285766;28;20460;-71
2023/07/17 11:25:12;;;;;;;8.75;4.65;;;;;;;22.99;40.04;101710.69;5284812;28;20039;-71
2023/07/17 11:27:43;;;;;;;7.18;4.32;;;;;;;23.17;40.82;101699.16;5285882;28;20036;-71
2023/07/17 11:30:26;;;;;;;6.05;3.80;;;;;;;23.53;39.75;101699.97;5285394;28;20501;-71
2023/07/17 11:32:57;;;;;;;8.38;4.40;;;;;;;22.86;41.13;101700.69;5285194;28;20043;-70
2023/07/17 11:35:42;;;;;;;7.93;4.67;;;;;;;22.56;42.76;101716.34;5285320;28;20379;-72
2023/07/17 11:38:19;;;;;;;7.35;4.18;;;;;;;22.00;44.20;101707.41;5285371;28;20065;-71
2023/07/17 11:40:58;;;;;;;12.07;5.38;;;;;;;21.81;44.87;101705.59;5285294;28;20040;-71